Time;durP1;ratioP1;P1;durP2;ratioP2;P2;SDS_P1;SDS_P2;PMS_P1;PMS_P2;Temp;Humidity;BMP_temperature;BMP_pressure;BME280_temperature;BME280_humidity;BME280_pressure;Samples;Min_cycle;Max_cycle;Signal;HPM_P1;HPM_P2
2022/09/11 00:00:52;;;;;;;;;;;;;;;;;;4913316;29;19919;-87
2022/09/11 00:03:18;;;;;;;;;;;;;;;;;;4910984;29;19982;-87
2022/09/11 00:05:43;;;;;;;;;;;;;;;;;;4913154;29;19923;-87
2022/09/11 00:08:08;;;;;;;;;;;;;;;;;;4912159;29;19926;-87
2022/09/11 00:10:34;;;;;;;;;;;;;;;;;;4912551;29;20006;-87
2022/09/11 00:12:59;;;;;;;;;;;;;;;;;;4919088;29;19919;-87
2022/09/11 00:15:24;;;;;;;;;;;;;;;;;;4908061;29;20319;-88
2022/09/11 00:17:50;;;;;;;;;;;;;;;;;;4910948;29;20142;-88
2022/09/11 00:20:15;;;;;;;;;;;;;;;;;;4909498;29;20555;-88
2022/09/11 00:22:40;;;;;;;;;;;;;;;;;;4917745;29;19919;-87
2022/09/11 00:25:05;;;;;;;;;;;;;;;;;;4909111;29;19923;-87
2022/09/11 00:27:31;;;;;;;;;;;;;;;;;;4908897;29;20309;-88
2022/09/11 00:29:56;;;;;;;;;;;;;;;;;;4910336;29;19962;-88
2022/09/11 00:32:22;;;;;;;;;;;;;;;;;;4911386;29;19967;-87
2022/09/11 00:34:47;;;;;;;;;;;;;;;;;;4909812;29;19919;-88
2022/09/11 00:37:13;;;;;;;;;;;;;;;;;;4912670;29;20445;-87
2022/09/11 00:39:38;;;;;;;;;;;;;;;;;;4906884;29;19919;-87
2022/09/11 00:42:04;;;;;;;;;;;;;;;;;;4908123;29;20409;-88
2022/09/11 00:44:29;;;;;;;;;;;;;;;;;;4907964;29;19923;-87
2022/09/11 00:46:54;;;;;;;;;;;;;;;;;;4909951;29;20389;-88
2022/09/11 00:49:19;;;;;;;;;;;;;;;;;;4910929;29;19926;-87
2022/09/11 00:51:44;;;;;;;;;;;;;;;;;;4913458;29;20258;-87
2022/09/11 00:54:11;;;;;;;;;;;;;;;;;;4911131;29;19984;-87
2022/09/11 00:56:36;;;;;;;;;;;;;;;;;;4913845;29;19959;-87
2022/09/11 00:59:01;;;;;;;;;;;;;;;;;;4912990;29;19971;-88
2022/09/11 01:01:27;;;;;;;;;;;;;;;;;;4909221;29;20377;-87
2022/09/11 01:03:52;;;;;;;;;;;;;;;;;;4909461;29;19927;-87
2022/09/11 01:06:17;;;;;;;;;;;;;;;;;;4905830;29;19919;-87
2022/09/11 01:08:42;;;;;;;;;;;;;;;;;;4911854;29;19923;-87
2022/09/11 01:11:07;;;;;;;;;;;;;;;;;;4910111;29;20315;-87
2022/09/11 01:13:32;;;;;;;;;;;;;;;;;;4916829;29;19931;-88
2022/09/11 01:16:03;;;;;;;;;;;;;;;;;;4911639;29;20049;-87
2022/09/11 01:18:28;;;;;;;;;;;;;;;;;;4908402;29;20255;-87
2022/09/11 01:20:53;;;;;;;;;;;;;;;;;;4910153;29;20061;-87
2022/09/11 01:23:18;;;;;;;;;;;;;;;;;;4905329;29;19923;-87
2022/09/11 01:25:43;;;;;;;;;;;;;;;;;;4909684;29;19930;-87
2022/09/11 01:28:08;;;;;;;;;;;;;;;;;;4911626;29;19915;-88
2022/09/11 01:30:34;;;;;;;;;;;;;;;;;;4900226;29;20308;-87
2022/09/11 01:32:59;;;;;;;;;;;;;;;;;;4909091;29;19919;-88
2022/09/11 01:35:24;;;;;;;;;;;;;;;;;;4910729;29;20300;-88
2022/09/11 01:37:49;;;;;;;;;;;;;;;;;;4886957;29;20002;-87
2022/09/11 01:40:15;;;;;;;;;;;;;;;;;;4902684;29;20445;-87
2022/09/11 01:42:41;;;;;;;;;;;;;;;;;;4909634;29;21437;-87
2022/09/11 01:45:07;;;;;;;;;;;;;;;;;;4908236;29;19998;-87
2022/09/11 01:47:33;;;;;;;;;;;;;;;;;;4909910;29;20341;-87
2022/09/11 01:49:58;;;;;;;;;;;;;;;;;;4906897;29;19919;-87
2022/09/11 01:52:25;;;;;;;;;;;;;;;;;;4910129;29;19919;-88
2022/09/11 01:54:51;;;;;;;;;;;;;;;;;;4907368;29;19951;-87
2022/09/11 01:57:16;;;;;;;;;;;;;;;;;;4906806;29;19962;-87
2022/09/11 01:59:41;;;;;;;;;;;;;;;;;;4910222;29;20424;-87
2022/09/11 02:02:07;;;;;;;;;;;;;;;;;;4908438;29;20381;-87
2022/09/11 02:04:32;;;;;;;;;;;;;;;;;;4909065;29;20823;-87
2022/09/11 02:06:58;;;;;;;;;;;;;;;;;;4912454;29;19922;-87
2022/09/11 02:09:23;;;;;;;;;;;;;;;;;;4916044;29;19916;-88
2022/09/11 02:11:48;;;;;;;;;;;;;;;;;;4910521;29;20308;-87
2022/09/11 02:14:14;;;;;;;;;;;;;;;;;;4917289;29;20407;-87
2022/09/11 02:16:40;;;;;;;;;;;;;;;;;;4910038;29;20007;-86
2022/09/11 02:19:05;;;;;;;;;;;;;;;;;;4913197;29;19946;-87
2022/09/11 02:21:30;;;;;;;;;;;;;;;;;;4906973;29;19922;-87
2022/09/11 02:23:55;;;;;;;;;;;;;;;;;;4898577;29;20091;-87
2022/09/11 02:26:20;;;;;;;;;;;;;;;;;;4913945;29;19996;-87
2022/09/11 02:28:46;;;;;;;;;;;;;;;;;;4911059;29;20452;-88
2022/09/11 02:31:11;;;;;;;;;;;;;;;;;;4911422;29;20396;-87
2022/09/11 02:33:36;;;;;;;;;;;;;;;;;;4909398;29;19919;-89
2022/09/11 02:36:01;;;;;;;;;;;;;;;;;;4908982;29;19981;-88
2022/09/11 02:38:28;;;;;;;;;;;;;;;;;;4908166;29;20410;-87
2022/09/11 02:40:54;;;;;;;;;;;;;;;;;;4895721;29;20053;-87
2022/09/11 02:43:19;;;;;;;;;;;;;;;;;;4906272;29;19982;-87
2022/09/11 02:45:44;;;;;;;;;;;;;;;;;;4906875;29;19919;-87
2022/09/11 02:48:10;;;;;;;;;;;;;;;;;;4914026;29;20082;-88
2022/09/11 02:50:35;;;;;;;;;;;;;;;;;;4912557;29;19919;-87
2022/09/11 02:53:01;;;;;;;;;;;;;;;;;;4917201;29;20337;-88
2022/09/11 02:55:26;;;;;;;;;;;;;;;;;;4911210;29;19919;-87
2022/09/11 02:57:51;;;;;;;;;;;;;;;;;;4912846;29;19926;-86
2022/09/11 03:00:16;;;;;;;;;;;;;;;;;;4907911;29;19919;-87
2022/09/11 03:02:42;;;;;;;;;;;;;;;;;;4912809;29;19930;-87
2022/09/11 03:05:07;;;;;;;;;;;;;;;;;;4913436;29;20273;-87
2022/09/11 03:07:32;;;;;;;;;;;;;;;;;;4911556;29;19919;-87
2022/09/11 03:09:57;;;;;;;;;;;;;;;;;;4917134;29;20018;-88
2022/09/11 03:12:22;;;;;;;;;;;;;;;;;;4914314;29;20204;-87
2022/09/11 03:14:48;;;;;;;;;;;;;;;;;;4914790;29;19919;-89
2022/09/11 03:17:13;;;;;;;;;;;;;;;;;;4914780;29;19923;-87
2022/09/11 03:22:06;;;;;;;;;;;;;;;;;;4918732;29;19935;-87
2022/09/11 03:24:31;;;;;;;;;;;;;;;;;;4922757;29;19961;-87
2022/09/11 03:26:56;;;;;;;;;;;;;;;;;;4929817;29;20283;-87
2022/09/11 03:29:21;;;;;;;;;;;;;;;;;;4926488;29;20207;-87
2022/09/11 03:31:46;;;;;;;;;;;;;;;;;;4928702;29;20435;-87
2022/09/11 03:34:12;;;;;;;;;;;;;;;;;;4927093;29;19923;-86
2022/09/11 03:36:37;;;;;;;;;;;;;;;;;;4924398;29;19914;-87
2022/09/11 03:39:02;;;;;;;;;;;;;;;;;;4913147;29;19986;-88
2022/09/11 03:41:27;;;;;;;;;;;;;;;;;;4921885;29;19915;-87
2022/09/11 03:43:52;;;;;;;;;;;;;;;;;;4943723;28;19929;-88
2022/09/11 03:46:18;;;;;;;;;;;;;;;;;;4947770;28;20017;-88
2022/09/11 03:48:45;;;;;;;;;;;;;;;;;;4944101;28;20447;-88
2022/09/11 03:51:10;;;;;;;;;;;;;;;;;;4944152;28;19950;-87
2022/09/11 03:53:37;;;;;;;;;;;;;;;;;;4939485;28;19919;-88
2022/09/11 03:56:03;;;;;;;;;;;;;;;;;;4944894;28;19922;-87
2022/09/11 03:58:29;;;;;;;;;;;;;;;;;;4945007;28;19915;-87
2022/09/11 04:00:54;;;;;;;;;;;;;;;;;;4942833;28;19915;-88
2022/09/11 04:03:20;;;;;;;;;;;;;;;;;;4942606;28;20391;-87
2022/09/11 04:05:45;;;;;;;;;;;;;;;;;;4938252;28;19974;-87
2022/09/11 04:08:10;;;;;;;;;;;;;;;;;;4945972;28;19929;-87
2022/09/11 04:10:35;;;;;;;;;;;;;;;;;;4943260;28;19945;-88
2022/09/11 04:13:00;;;;;;;;;;;;;;;;;;4944771;28;19923;-87
2022/09/11 04:15:26;;;;;;;;;;;;;;;;;;4946419;28;19993;-87
2022/09/11 04:17:51;;;;;;;;;;;;;;;;;;4943685;28;19918;-88
2022/09/11 04:20:16;;;;;;;;;;;;;;;;;;4949210;28;20380;-87
2022/09/11 04:22:42;;;;;;;;;;;;;;;;;;4941946;28;19918;-87
2022/09/11 04:25:07;;;;;;;;;;;;;;;;;;4942076;28;20005;-88
2022/09/11 04:27:32;;;;;;;;;;;;;;;;;;4943934;28;19997;-88
2022/09/11 04:29:57;;;;;;;;;;;;;;;;;;4946545;28;19919;-88
2022/09/11 04:32:22;;;;;;;;;;;;;;;;;;4940256;28;20017;-87
2022/09/11 04:34:48;;;;;;;;;;;;;;;;;;4943433;28;19947;-88
2022/09/11 04:37:14;;;;;;;;;;;;;;;;;;4939034;28;19997;-88
2022/09/11 04:39:39;;;;;;;;;;;;;;;;;;4943373;28;19914;-87
2022/09/11 04:42:04;;;;;;;;;;;;;;;;;;4951105;28;19919;-87
2022/09/11 04:44:31;;;;;;;;;;;;;;;;;;4942649;28;19928;-88
2022/09/11 04:46:56;;;;;;;;;;;;;;;;;;4938704;28;19922;-88
2022/09/11 04:49:22;;;;;;;;;;;;;;;;;;4939199;28;19914;-88
2022/09/11 04:51:47;;;;;;;;;;;;;;;;;;4944676;28;20253;-88
2022/09/11 04:54:12;;;;;;;;;;;;;;;;;;4942432;28;19942;-88
2022/09/11 04:56:37;;;;;;;;;;;;;;;;;;4937942;28;19919;-88
2022/09/11 04:59:04;;;;;;;;;;;;;;;;;;4946753;28;20420;-87
2022/09/11 05:01:29;;;;;;;;;;;;;;;;;;4942910;28;19921;-88
2022/09/11 05:03:55;;;;;;;;;;;;;;;;;;4943993;28;19944;-88
2022/09/11 05:06:23;;;;;;;;;;;;;;;;;;4947142;28;20021;-88
2022/09/11 05:08:49;;;;;;;;;;;;;;;;;;4943912;28;20013;-88
2022/09/11 05:11:14;;;;;;;;;;;;;;;;;;4940512;28;19915;-88
2022/09/11 05:13:39;;;;;;;;;;;;;;;;;;4945458;28;19929;-88
2022/09/11 05:16:04;;;;;;;;;;;;;;;;;;4940040;28;20316;-88
2022/09/11 05:18:29;;;;;;;;;;;;;;;;;;4941967;28;19926;-88
2022/09/11 05:20:55;;;;;;;;;;;;;;;;;;4941550;28;20268;-88
2022/09/11 05:23:20;;;;;;;;;;;;;;;;;;4943546;28;19926;-88
2022/09/11 05:25:47;;;;;;;;;;;;;;;;;;4936871;28;24235;-89
2022/09/11 05:28:13;;;;;;;;;;;;;;;;;;4944365;28;19914;-89
2022/09/11 05:30:38;;;;;;;;;;;;;;;;;;4926962;29;19921;-88
2022/09/11 05:33:03;;;;;;;;;;;;;;;;;;4938672;28;19918;-88
2022/09/11 05:35:31;;;;;;;;;;;;;;;;;;4943159;28;20006;-89
2022/09/11 05:37:56;;;;;;;;;;;;;;;;;;4946767;28;19914;-88
2022/09/11 05:40:22;;;;;;;;;;;;;;;;;;4941615;28;19921;-89
2022/09/11 05:42:47;;;;;;;;;;;;;;;;;;4945739;28;19927;-88
2022/09/11 05:45:12;;;;;;;;;;;;;;;;;;4943399;28;19914;-88
2022/09/11 05:47:37;;;;;;;;;;;;;;;;;;4945134;28;19919;-88
2022/09/11 05:50:03;;;;;;;;;;;;;;;;;;4947681;28;19921;-89
2022/09/11 05:52:29;;;;;;;;;;;;;;;;;;4944444;28;20070;-89
2022/09/11 05:54:55;;;;;;;;;;;;;;;;;;4950778;28;19914;-88
2022/09/11 05:57:20;;;;;;;;;;;;;;;;;;4944764;28;19922;-87
2022/09/11 05:59:45;;;;;;;;;;;;;;;;;;4948947;28;20296;-88
2022/09/11 06:02:11;;;;;;;;;;;;;;;;;;4948333;28;19997;-87
2022/09/11 06:04:36;;;;;;;;;;;;;;;;;;4947607;28;20473;-89
2022/09/11 06:07:01;;;;;;;;;;;;;;;;;;4944399;28;19914;-88
2022/09/11 06:09:26;;;;;;;;;;;;;;;;;;4941762;28;19914;-88
2022/09/11 06:11:52;;;;;;;;;;;;;;;;;;4937814;28;20521;-88
2022/09/11 06:14:17;;;;;;;;;;;;;;;;;;4939357;28;20178;-88
2022/09/11 06:16:42;;;;;;;;;;;;;;;;;;4938109;28;19923;-88
2022/09/11 06:19:07;;;;;;;;;;;;;;;;;;4940647;28;20473;-88
2022/09/11 06:21:32;;;;;;;;;;;;;;;;;;4938336;28;19919;-88
2022/09/11 06:23:58;;;;;;;;;;;;;;;;;;4939683;28;20151;-88
2022/09/11 06:26:23;;;;;;;;;;;;;;;;;;4941641;28;20377;-89
2022/09/11 06:28:49;;;;;;;;;;;;;;;;;;4932341;29;20318;-89
2022/09/11 06:31:18;;;;;;;;;;;;;;;;;;4941925;29;19915;-88
2022/09/11 06:33:43;;;;;;;;;;;;;;;;;;4933490;29;19911;-88
2022/09/11 06:36:09;;;;;;;;;;;;;;;;;;4944382;29;20392;-88
2022/09/11 06:38:34;;;;;;;;;;;;;;;;;;4967383;28;20058;-88
2022/09/11 06:41:01;;;;;;;;;;;;;;;;;;4951208;28;19985;-89
2022/09/11 06:43:26;;;;;;;;;;;;;;;;;;4938883;29;19930;-88
2022/09/11 06:45:51;;;;;;;;;;;;;;;;;;4956553;28;19910;-88
2022/09/11 06:48:17;;;;;;;;;;;;;;;;;;4976028;28;20070;-88
2022/09/11 06:50:42;;;;;;;;;;;;;;;;;;4964485;28;20396;-88
2022/09/11 06:53:07;;;;;;;;;;;;;;;;;;4961813;28;20380;-88
2022/09/11 06:55:32;;;;;;;;;;;;;;;;;;4955698;28;19921;-89
2022/09/11 06:57:57;;;;;;;;;;;;;;;;;;4943066;28;19911;-88
2022/09/11 07:00:23;;;;;;;;;;;;;;;;;;4957584;28;19942;-87
2022/09/11 07:02:49;;;;;;;;;;;;;;;;;;4957673;28;19950;-88
2022/09/11 07:05:14;;;;;;;;;;;;;;;;;;4924274;29;19950;-88
2022/09/11 07:07:40;;;;;;;;;;;;;;;;;;4940219;29;19994;-89
2022/09/11 07:10:05;;;;;;;;;;;;;;;;;;4938602;29;20393;-88
2022/09/11 07:12:30;;;;;;;;;;;;;;;;;;4939352;29;19946;-88
2022/09/11 07:14:56;;;;;;;;;;;;;;;;;;4943045;29;20352;-87
2022/09/11 07:17:21;;;;;;;;;;;;;;;;;;4957788;28;19911;-87
2022/09/11 07:19:46;;;;;;;;;;;;;;;;;;4957682;28;19911;-88
2022/09/11 07:22:13;;;;;;;;;;;;;;;;;;4951185;29;19994;-88
2022/09/11 07:24:38;;;;;;;;;;;;;;;;;;4938943;29;19921;-88
2022/09/11 07:27:03;;;;;;;;;;;;;;;;;;4938929;29;19911;-88
2022/09/11 07:29:30;;;;;;;;;;;;;;;;;;4939314;29;19915;-88
2022/09/11 07:31:56;;;;;;;;;;;;;;;;;;4948516;28;19910;-88
2022/09/11 07:34:21;;;;;;;;;;;;;;;;;;4959989;28;19970;-87
2022/09/11 07:36:50;;;;;;;;;;;;;;;;;;4951038;29;20364;-87
2022/09/11 07:39:15;;;;;;;;;;;;;;;;;;4957713;28;19911;-87
2022/09/11 07:41:40;;;;;;;;;;;;;;;;;;4940638;28;19922;-88
2022/09/11 07:44:06;;;;;;;;;;;;;;;;;;4961015;28;19915;-88
2022/09/11 07:46:31;;;;;;;;;;;;;;;;;;4970241;28;19910;-88
2022/09/11 07:49:00;;;;;;;;;;;;;;;;;;4957531;28;20042;-88
2022/09/11 07:51:26;;;;;;;;;;;;;;;;;;4957308;28;19933;-89
2022/09/11 07:53:51;;;;;;;;;;;;;;;;;;4956057;28;20553;-88
2022/09/11 07:56:18;;;;;;;;;;;;;;;;;;4957378;28;19997;-88
2022/09/11 07:58:43;;;;;;;;;;;;;;;;;;4957209;28;19917;-89
2022/09/11 08:01:09;;;;;;;;;;;;;;;;;;4956909;28;19985;-88
2022/09/11 08:03:34;;;;;;;;;;;;;;;;;;4945658;28;19923;-87
2022/09/11 08:05:59;;;;;;;;;;;;;;;;;;4956527;28;19911;-87
2022/09/11 08:08:25;;;;;;;;;;;;;;;;;;4939031;28;19918;-88
2022/09/11 08:10:50;;;;;;;;;;;;;;;;;;4948744;29;20582;-88
2022/09/11 08:13:15;;;;;;;;;;;;;;;;;;4937240;29;19910;-89
2022/09/11 08:15:40;;;;;;;;;;;;;;;;;;4937353;29;19919;-89
2022/09/11 08:18:06;;;;;;;;;;;;;;;;;;4937664;29;19958;-88
2022/09/11 08:20:31;;;;;;;;;;;;;;;;;;4950764;28;19965;-88
2022/09/11 08:22:57;;;;;;;;;;;;;;;;;;4954750;28;20292;-88
2022/09/11 08:25:22;;;;;;;;;;;;;;;;;;4953016;28;19917;-85
2022/09/11 08:27:54;;;;;;;;;;;;;;;;;;4952593;28;20399;-86
2022/09/11 08:30:22;;;;;;;;;;;;;;;;;;4955417;28;20005;-89
2022/09/11 08:32:47;;;;;;;;;;;;;;;;;;4943909;29;19914;-86
2022/09/11 08:35:13;;;;;;;;;;;;;;;;;;4938209;28;19949;-86
2022/09/11 08:37:39;;;;;;;;;;;;;;;;;;4945008;29;19914;-87
2022/09/11 08:40:04;;;;;;;;;;;;;;;;;;4940802;28;19957;-88
2022/09/11 08:42:29;;;;;;;;;;;;;;;;;;4940319;28;19982;-88
2022/09/11 08:44:54;;;;;;;;;;;;;;;;;;4956981;28;20577;-87
2022/09/11 08:47:21;;;;;;;;;;;;;;;;;;4961721;28;19957;-88
2022/09/11 08:49:46;;;;;;;;;;;;;;;;;;4939575;28;19989;-90
2022/09/11 08:52:12;;;;;;;;;;;;;;;;;;4943120;28;19998;-86
2022/09/11 08:54:37;;;;;;;;;;;;;;;;;;4948782;28;20021;-86
2022/09/11 08:57:04;;;;;;;;;;;;;;;;;;4943900;28;19914;-89
2022/09/11 08:59:29;;;;;;;;;;;;;;;;;;4945693;28;19941;-87
2022/09/11 09:01:54;;;;;;;;;;;;;;;;;;4945193;28;20360;-86
2022/09/11 09:04:20;;;;;;;;;;;;;;;;;;4950620;28;19925;-86
2022/09/11 09:06:45;;;;;;;;;;;;;;;;;;4950374;28;19962;-86
2022/09/11 09:09:10;;;;;;;;;;;;;;;;;;4952648;28;20383;-85
2022/09/11 09:11:36;;;;;;;;;;;;;;;;;;4935794;29;19914;-87
2022/09/11 09:14:04;;;;;;;;;;;;;;;;;;4946951;28;19918;-87
2022/09/11 09:16:30;;;;;;;;;;;;;;;;;;4949750;28;19923;-88
2022/09/11 09:18:55;;;;;;;;;;;;;;;;;;4934833;28;20391;-85
2022/09/11 09:23:48;;;;;;;;;;;;;;;;;;4909886;29;21708;-86
2022/09/11 09:26:14;;;;;;;;;;;;;;;;;;4913795;29;19915;-85
2022/09/11 09:28:40;;;;;;;;;;;;;;;;;;4910296;29;19922;-86
2022/09/11 09:31:06;;;;;;;;;;;;;;;;;;4912418;29;19915;-87
2022/09/11 09:33:31;;;;;;;;;;;;;;;;;;4908890;29;19957;-86
2022/09/11 09:35:56;;;;;;;;;;;;;;;;;;4911346;29;19926;-87
2022/09/11 09:38:22;;;;;;;;;;;;;;;;;;4912520;29;19923;-86
2022/09/11 09:40:47;;;;;;;;;;;;;;;;;;4905430;29;19919;-85
2022/09/11 09:43:13;;;;;;;;;;;;;;;;;;4910259;29;20333;-85
2022/09/11 09:45:38;;;;;;;;;;;;;;;;;;4906501;29;19990;-86
2022/09/11 09:48:03;;;;;;;;;;;;;;;;;;4905676;29;20237;-85
2022/09/11 09:50:28;;;;;;;;;;;;;;;;;;4901558;29;19920;-86
2022/09/11 09:52:55;;;;;;;;;;;;;;;;;;4899962;29;19967;-87
2022/09/11 09:55:41;;;;;;;;;;;;;;;;;;4883180;29;19924;-85
2022/09/11 09:58:06;;;;;;;;;;;;;;;;;;4911490;29;19915;-88
2022/09/11 10:00:31;;;;;;;;;;;;;;;;;;4915788;29;19933;-87
2022/09/11 10:02:57;;;;;;;;;;;;;;;;;;4917153;29;19919;-86
2022/09/11 10:05:22;;;;;;;;;;;;;;;;;;4913188;29;20022;-86
2022/09/11 10:07:50;;;;;;;;;;;;;;;;;;4907547;29;19919;-85
2022/09/11 10:10:16;;;;;;;;;;;;;;;;;;4911151;29;19930;-85
2022/09/11 10:12:41;;;;;;;;;;;;;;;;;;4914772;29;20285;-86
2022/09/11 10:15:07;;;;;;;;;;;;;;;;;;4909351;29;20304;-86
2022/09/11 10:17:32;;;;;;;;;;;;;;;;;;4908677;29;19919;-86
2022/09/11 10:19:57;;;;;;;;;;;;;;;;;;4906323;29;19926;-86
2022/09/11 10:22:23;;;;;;;;;;;;;;;;;;4905206;29;20270;-85
2022/09/11 10:24:48;;;;;;;;;;;;;;;;;;4902489;29;19923;-86
2022/09/11 10:27:13;;;;;;;;;;;;;;;;;;4913686;29;19919;-87
2022/09/11 10:29:39;;;;;;;;;;;;;;;;;;4906871;29;19922;-87
2022/09/11 10:32:04;;;;;;;;;;;;;;;;;;4909902;29;19923;-87
2022/09/11 10:34:29;;;;;;;;;;;;;;;;;;4902934;29;19922;-85
2022/09/11 10:36:55;;;;;;;;;;;;;;;;;;4902703;29;19919;-86
2022/09/11 10:39:20;;;;;;;;;;;;;;;;;;4907231;29;19919;-87
2022/09/11 10:41:47;;;;;;;;;;;;;;;;;;4906912;29;20369;-85
2022/09/11 10:44:12;;;;;;;;;;;;;;;;;;4908368;29;19926;-87
2022/09/11 10:46:37;;;;;;;;;;;;;;;;;;4905432;29;20288;-86
2022/09/11 10:49:03;;;;;;;;;;;;;;;;;;4904183;29;20303;-85
2022/09/11 10:51:28;;;;;;;;;;;;;;;;;;4903356;29;19919;-86
2022/09/11 10:53:53;;;;;;;;;;;;;;;;;;4908255;29;19927;-85
2022/09/11 10:56:19;;;;;;;;;;;;;;;;;;4907730;29;20329;-86
2022/09/11 10:58:44;;;;;;;;;;;;;;;;;;4909625;29;19915;-88
2022/09/11 11:01:10;;;;;;;;;;;;;;;;;;4908767;29;20688;-87
2022/09/11 11:03:35;;;;;;;;;;;;;;;;;;4905509;29;20005;-86
2022/09/11 11:39:55;;;;;;;;;;;;;;;;;;4958785;23;19969;-88
2022/09/11 11:42:20;;;;;;;;;;;;;;;;;;4927202;28;20025;-87
2022/09/11 11:44:48;;;;;;;;;;;;;;;;;;4917194;29;20365;-88
2022/09/11 11:47:13;;;;;;;;;;;;;;;;;;4922379;29;20005;-88
2022/09/11 11:49:38;;;;;;;;;;;;;;;;;;4928710;29;20005;-88
2022/09/11 11:52:03;;;;;;;;;;;;;;;;;;4925273;28;19915;-88
2022/09/11 11:54:29;;;;;;;;;;;;;;;;;;4921524;29;19919;-88
2022/09/11 11:56:54;;;;;;;;;;;;;;;;;;4921705;29;19915;-88
2022/09/11 11:59:19;;;;;;;;;;;;;;;;;;4920182;29;20308;-88
2022/09/11 12:01:46;;;;;;;;;;;;;;;;;;4921484;29;19915;-88
2022/09/11 12:04:12;;;;;;;;;;;;;;;;;;4924190;29;19923;-88
2022/09/11 12:06:37;;;;;;;;;;;;;;;;;;4921819;29;19951;-88
2022/09/11 12:09:02;;;;;;;;;;;;;;;;;;4922643;29;19923;-88
2022/09/11 12:11:27;;;;;;;;;;;;;;;;;;4923834;29;19919;-88
2022/09/11 12:13:53;;;;;;;;;;;;;;;;;;4917807;29;20424;-86
2022/09/11 12:16:18;;;;;;;;;;;;;;;;;;4920683;29;19930;-89
2022/09/11 12:18:43;;;;;;;;;;;;;;;;;;4920007;29;19962;-89
2022/09/11 12:21:08;;;;;;;;;;;;;;;;;;4920186;29;19921;-89
2022/09/11 12:23:33;;;;;;;;;;;;;;;;;;4918866;29;20598;-89
2022/09/11 12:25:58;;;;;;;;;;;;;;;;;;4919906;29;19919;-89
2022/09/11 12:28:24;;;;;;;;;;;;;;;;;;4918806;29;19965;-89
2022/09/11 12:30:49;;;;;;;;;;;;;;;;;;4905759;29;19919;-88
2022/09/11 12:33:14;;;;;;;;;;;;;;;;;;4916692;29;19914;-87
2022/09/11 12:35:40;;;;;;;;;;;;;;;;;;4921949;29;20238;-87
2022/09/11 12:38:05;;;;;;;;;;;;;;;;;;4918513;29;19958;-88
2022/09/11 12:40:33;;;;;;;;;;;;;;;;;;4916360;29;20010;-89
2022/09/11 12:42:58;;;;;;;;;;;;;;;;;;4921031;29;19915;-88
2022/09/11 12:45:24;;;;;;;;;;;;;;;;;;4917456;29;19933;-89
2022/09/11 12:47:49;;;;;;;;;;;;;;;;;;4921584;29;19961;-89
2022/09/11 12:50:15;;;;;;;;;;;;;;;;;;4917573;29;19926;-88
2022/09/11 12:52:41;;;;;;;;;;;;;;;;;;4917785;29;19918;-89
2022/09/11 12:55:07;;;;;;;;;;;;;;;;;;4922737;29;19915;-89
2022/09/11 12:57:35;;;;;;;;;;;;;;;;;;4920486;29;19922;-87
2022/09/11 13:00:00;;;;;;;;;;;;;;;;;;4917496;29;19915;-87
2022/09/11 13:02:25;;;;;;;;;;;;;;;;;;4916997;29;19982;-87
2022/09/11 13:04:51;;;;;;;;;;;;;;;;;;4916890;29;20053;-88
2022/09/11 13:07:16;;;;;;;;;;;;;;;;;;4917464;29;20351;-88
2022/09/11 13:09:41;;;;;;;;;;;;;;;;;;4917342;29;19919;-88
2022/09/11 13:12:07;;;;;;;;;;;;;;;;;;4917323;29;20345;-87
2022/09/11 13:14:32;;;;;;;;;;;;;;;;;;4915427;29;19942;-87
2022/09/11 13:16:58;;;;;;;;;;;;;;;;;;4914600;29;19931;-87
2022/09/11 13:19:23;;;;;;;;;;;;;;;;;;4917407;29;19923;-89
2022/09/11 13:21:50;;;;;;;;;;;;;;;;;;4918133;29;19938;-88
2022/09/11 13:24:19;;;;;;;;;;;;;;;;;;4921823;29;19974;-88
2022/09/11 13:26:44;;;;;;;;;;;;;;;;;;4909211;29;20053;-88
2022/09/11 13:29:09;;;;;;;;;;;;;;;;;;4923893;29;19918;-89
2022/09/11 13:31:35;;;;;;;;;;;;;;;;;;4925098;29;20017;-90
2022/09/11 13:34:00;;;;;;;;;;;;;;;;;;4918903;29;19934;-87
2022/09/11 13:36:25;;;;;;;;;;;;;;;;;;4922367;29;19926;-88
2022/09/11 13:38:51;;;;;;;;;;;;;;;;;;4918144;29;19919;-88
2022/09/11 13:41:17;;;;;;;;;;;;;;;;;;4922658;29;19957;-87
2022/09/11 13:43:43;;;;;;;;;;;;;;;;;;4917424;29;20858;-87
2022/09/11 13:46:08;;;;;;;;;;;;;;;;;;4923539;29;19925;-86
2022/09/11 13:48:33;;;;;;;;;;;;;;;;;;4922122;29;19941;-86
2022/09/11 13:50:58;;;;;;;;;;;;;;;;;;4919498;29;19915;-86
2022/09/11 13:53:24;;;;;;;;;;;;;;;;;;4922348;29;20336;-87
2022/09/11 13:55:49;;;;;;;;;;;;;;;;;;4919999;29;19919;-87
2022/09/11 13:58:15;;;;;;;;;;;;;;;;;;4921112;29;19923;-86
2022/09/11 14:00:40;;;;;;;;;;;;;;;;;;4921528;29;19923;-87
2022/09/11 14:03:05;;;;;;;;;;;;;;;;;;4922156;29;20005;-87
2022/09/11 14:05:31;;;;;;;;;;;;;;;;;;4915041;29;20387;-87
2022/09/11 14:07:56;;;;;;;;;;;;;;;;;;4912099;29;19927;-85
2022/09/11 14:10:21;;;;;;;;;;;;;;;;;;4913115;29;20425;-87
2022/09/11 14:12:46;;;;;;;;;;;;;;;;;;4916006;29;20017;-86
2022/09/11 14:15:12;;;;;;;;;;;;;;;;;;4913011;29;20161;-86
2022/09/11 14:17:37;;;;;;;;;;;;;;;;;;4911727;29;19919;-86
2022/09/11 14:20:02;;;;;;;;;;;;;;;;;;4914051;29;19930;-86
2022/09/11 14:22:28;;;;;;;;;;;;;;;;;;4910617;29;20197;-86
2022/09/11 14:24:53;;;;;;;;;;;;;;;;;;4911412;29;19934;-87
2022/09/11 14:27:18;;;;;;;;;;;;;;;;;;4912604;29;19930;-86
2022/09/11 14:29:44;;;;;;;;;;;;;;;;;;4911881;29;19938;-86
2022/09/11 14:32:09;;;;;;;;;;;;;;;;;;4920803;29;20022;-87
2022/09/11 14:34:34;;;;;;;;;;;;;;;;;;4912284;29;20415;-85
2022/09/11 14:36:59;;;;;;;;;;;;;;;;;;4912230;29;19923;-86
2022/09/11 14:39:24;;;;;;;;;;;;;;;;;;4912999;29;19937;-86
2022/09/11 14:41:50;;;;;;;;;;;;;;;;;;4910899;29;19923;-86
2022/09/11 14:44:15;;;;;;;;;;;;;;;;;;4912517;29;20305;-86
2022/09/11 14:46:40;;;;;;;;;;;;;;;;;;4913365;29;19925;-86
2022/09/11 14:49:08;;;;;;;;;;;;;;;;;;4914495;29;20373;-87
2022/09/11 14:51:33;;;;;;;;;;;;;;;;;;4909579;29;19923;-87
2022/09/11 14:53:58;;;;;;;;;;;;;;;;;;4915258;29;20529;-86
2022/09/11 14:56:23;;;;;;;;;;;;;;;;;;4922862;29;20058;-86
2022/09/11 14:58:48;;;;;;;;;;;;;;;;;;4916338;29;19919;-88
2022/09/11 15:01:14;;;;;;;;;;;;;;;;;;4913206;29;19922;-86
2022/09/11 15:03:39;;;;;;;;;;;;;;;;;;4918774;29;19945;-86
2022/09/11 15:06:04;;;;;;;;;;;;;;;;;;4918088;29;20013;-86
2022/09/11 15:08:30;;;;;;;;;;;;;;;;;;4922367;29;19919;-86
2022/09/11 15:10:55;;;;;;;;;;;;;;;;;;4921862;29;20001;-88
2022/09/11 15:13:20;;;;;;;;;;;;;;;;;;4918774;29;19919;-85
2022/09/11 15:15:45;;;;;;;;;;;;;;;;;;4913874;29;20100;-84
2022/09/11 15:18:11;;;;;;;;;;;;;;;;;;4912265;29;20441;-85
2022/09/11 15:20:36;;;;;;;;;;;;;;;;;;4919436;29;19922;-85
